Weather at Three Rivers Airstrip

Public forecast

Using degrees Celsius for public forecast. Weather courtesy of forecast.io.

Closest aviation weather report (METAR) to Three Rivers Airstrip

Closest report is Geraldton Airport, 324.1 nm (600.3 km) SW.

2024/05/26 20:30 (retrieved 39 minutes ago)

YGEL 262030Z AUTO 03006KT 9999 // NCD 14/13 Q1019 RF000/0000

Closest aviation forecast (TAF) to Three Rivers Airstrip

Closest forecast is Geraldton Airport, 324.1 nm (600.3 km) SW.

2024/05/26 18:00 (retrieved 3 hours ago)

TAF YGEL 261650Z 2618/2712 05008KT CAVOK FM270500 23010KT CAVOK